sensor_id;sensor_type;location;lat;lon;timestamp;P1;durP1;ratioP1;P2;durP2;ratioP2
39264;SDS011;42646;51.910;7.724;2022-09-02T00:01:18;2.88;;;1.10;;
39264;SDS011;42646;51.910;7.724;2022-09-02T00:03:51;1.65;;;0.90;;
39264;SDS011;42646;51.910;7.724;2022-09-02T00:06:23;2.05;;;1.10;;
39264;SDS011;42646;51.910;7.724;2022-09-02T00:08:51;2.00;;;1.00;;
39264;SDS011;42646;51.910;7.724;2022-09-02T00:11:20;2.25;;;1.02;;
39264;SDS011;42646;51.910;7.724;2022-09-02T00:13:53;1.65;;;1.00;;
39264;SDS011;42646;51.910;7.724;2022-09-02T00:16:22;3.30;;;1.00;;
39264;SDS011;42646;51.910;7.724;2022-09-02T00:18:51;2.55;;;1.00;;
39264;SDS011;42646;51.910;7.724;2022-09-02T00:21:21;2.37;;;1.10;;
39264;SDS011;42646;51.910;7.724;2022-09-02T00:23:50;3.50;;;1.05;;
39264;SDS011;42646;51.910;7.724;2022-09-02T00:26:18;2.08;;;1.10;;
39264;SDS011;42646;51.910;7.724;2022-09-02T00:28:46;2.38;;;1.10;;
39264;SDS011;42646;51.910;7.724;2022-09-02T00:31:21;2.85;;;1.05;;
39264;SDS011;42646;51.910;7.724;2022-09-02T00:33:51;1.52;;;0.98;;
39264;SDS011;42646;51.910;7.724;2022-09-02T00:36:19;2.08;;;1.10;;
39264;SDS011;42646;51.910;7.724;2022-09-02T00:38:48;2.05;;;1.10;;
39264;SDS011;42646;51.910;7.724;2022-09-02T00:41:18;2.58;;;1.00;;
39264;SDS011;42646;51.910;7.724;2022-09-02T00:43:49;2.40;;;1.05;;
39264;SDS011;42646;51.910;7.724;2022-09-02T00:46:21;1.90;;;0.90;;
39264;SDS011;42646;51.910;7.724;2022-09-02T00:48:54;2.28;;;0.93;;
39264;SDS011;42646;51.910;7.724;2022-09-02T00:51:25;2.05;;;1.00;;
39264;SDS011;42646;51.910;7.724;2022-09-02T00:53:59;3.20;;;1.20;;
39264;SDS011;42646;51.910;7.724;2022-09-02T00:56:27;1.63;;;1.00;;
39264;SDS011;42646;51.910;7.724;2022-09-02T00:58:57;2.55;;;1.25;;
39264;SDS011;42646;51.910;7.724;2022-09-02T01:01:27;1.40;;;1.00;;
39264;SDS011;42646;51.910;7.724;2022-09-02T01:03:56;2.45;;;1.00;;
39264;SDS011;42646;51.910;7.724;2022-09-02T01:06:24;2.08;;;1.00;;
39264;SDS011;42646;51.910;7.724;2022-09-02T01:09:00;2.45;;;1.00;;
39264;SDS011;42646;51.910;7.724;2022-09-02T01:11:38;2.33;;;1.13;;
39264;SDS011;42646;51.910;7.724;2022-09-02T01:14:08;2.47;;;1.00;;
39264;SDS011;42646;51.910;7.724;2022-09-02T01:16:38;2.40;;;1.17;;
39264;SDS011;42646;51.910;7.724;2022-09-02T01:19:11;1.95;;;1.00;;
39264;SDS011;42646;51.910;7.724;2022-09-02T01:21:52;1.85;;;1.08;;
39264;SDS011;42646;51.910;7.724;2022-09-02T01:24:21;2.05;;;1.10;;
39264;SDS011;42646;51.910;7.724;2022-09-02T01:26:53;1.48;;;1.02;;
39264;SDS011;42646;51.910;7.724;2022-09-02T01:29:22;1.95;;;1.00;;
39264;SDS011;42646;51.910;7.724;2022-09-02T01:31:51;1.80;;;1.00;;
39264;SDS011;42646;51.910;7.724;2022-09-02T01:34:19;3.25;;;1.05;;
39264;SDS011;42646;51.910;7.724;2022-09-02T01:36:47;2.03;;;1.20;;
39264;SDS011;42646;51.910;7.724;2022-09-02T01:39:16;2.80;;;1.00;;
39264;SDS011;42646;51.910;7.724;2022-09-02T01:41:44;2.15;;;1.10;;
39264;SDS011;42646;51.910;7.724;2022-09-02T01:44:12;2.67;;;1.10;;
39264;SDS011;42646;51.910;7.724;2022-09-02T01:46:41;2.00;;;0.93;;
39264;SDS011;42646;51.910;7.724;2022-09-02T01:49:09;1.92;;;0.80;;
39264;SDS011;42646;51.910;7.724;2022-09-02T01:51:38;3.00;;;1.20;;
39264;SDS011;42646;51.910;7.724;2022-09-02T01:54:06;2.97;;;1.42;;
39264;SDS011;42646;51.910;7.724;2022-09-02T01:56:35;1.85;;;1.02;;
39264;SDS011;42646;51.910;7.724;2022-09-02T01:59:04;2.72;;;1.20;;
39264;SDS011;42646;51.910;7.724;2022-09-02T02:01:33;3.95;;;1.30;;
39264;SDS011;42646;51.910;7.724;2022-09-02T02:04:02;2.92;;;1.33;;
39264;SDS011;42646;51.910;7.724;2022-09-02T02:06:30;2.28;;;1.10;;
39264;SDS011;42646;51.910;7.724;2022-09-02T02:08:58;3.65;;;1.20;;
39264;SDS011;42646;51.910;7.724;2022-09-02T02:11:26;2.10;;;1.10;;
39264;SDS011;42646;51.910;7.724;2022-09-02T02:13:58;2.28;;;1.20;;
39264;SDS011;42646;51.910;7.724;2022-09-02T02:16:26;2.30;;;1.00;;
39264;SDS011;42646;51.910;7.724;2022-09-02T02:18:54;2.38;;;1.10;;
39264;SDS011;42646;51.910;7.724;2022-09-02T02:21:22;2.15;;;1.10;;
39264;SDS011;42646;51.910;7.724;2022-09-02T02:23:50;1.90;;;1.20;;
39264;SDS011;42646;51.910;7.724;2022-09-02T02:26:18;1.52;;;0.93;;
39264;SDS011;42646;51.910;7.724;2022-09-02T02:28:46;3.00;;;1.08;;
39264;SDS011;42646;51.910;7.724;2022-09-02T02:31:16;1.98;;;0.95;;
39264;SDS011;42646;51.910;7.724;2022-09-02T02:33:44;1.88;;;1.20;;
39264;SDS011;42646;51.910;7.724;2022-09-02T02:36:12;1.98;;;1.10;;
39264;SDS011;42646;51.910;7.724;2022-09-02T02:38:41;2.42;;;1.20;;
39264;SDS011;42646;51.910;7.724;2022-09-02T02:41:11;1.75;;;1.00;;
39264;SDS011;42646;51.910;7.724;2022-09-02T02:43:40;3.65;;;1.13;;
39264;SDS011;42646;51.910;7.724;2022-09-02T02:46:08;2.25;;;1.20;;
39264;SDS011;42646;51.910;7.724;2022-09-02T02:48:39;2.60;;;1.00;;
39264;SDS011;42646;51.910;7.724;2022-09-02T02:51:06;3.17;;;1.50;;
39264;SDS011;42646;51.910;7.724;2022-09-02T02:53:35;2.05;;;1.27;;
39264;SDS011;42646;51.910;7.724;2022-09-02T02:56:03;2.25;;;1.13;;
39264;SDS011;42646;51.910;7.724;2022-09-02T02:58:32;2.40;;;1.10;;
39264;SDS011;42646;51.910;7.724;2022-09-02T03:01:00;3.25;;;1.10;;
39264;SDS011;42646;51.910;7.724;2022-09-02T03:03:29;2.70;;;1.17;;
39264;SDS011;42646;51.910;7.724;2022-09-02T03:05:59;1.80;;;1.00;;
39264;SDS011;42646;51.910;7.724;2022-09-02T03:08:28;2.35;;;1.10;;
39264;SDS011;42646;51.910;7.724;2022-09-02T03:10:56;3.00;;;1.30;;
39264;SDS011;42646;51.910;7.724;2022-09-02T03:15:59;2.22;;;1.30;;
39264;SDS011;42646;51.910;7.724;2022-09-02T03:18:26;2.63;;;1.17;;
39264;SDS011;42646;51.910;7.724;2022-09-02T03:20:56;3.53;;;1.30;;
39264;SDS011;42646;51.910;7.724;2022-09-02T03:23:25;1.88;;;1.00;;
39264;SDS011;42646;51.910;7.724;2022-09-02T03:25:53;2.50;;;1.20;;
39264;SDS011;42646;51.910;7.724;2022-09-02T03:28:34;2.55;;;1.10;;
39264;SDS011;42646;51.910;7.724;2022-09-02T03:31:04;2.10;;;1.20;;
39264;SDS011;42646;51.910;7.724;2022-09-02T03:33:33;1.90;;;1.20;;
39264;SDS011;42646;51.910;7.724;2022-09-02T03:36:01;2.17;;;1.10;;
39264;SDS011;42646;51.910;7.724;2022-09-02T03:38:31;2.90;;;1.10;;
39264;SDS011;42646;51.910;7.724;2022-09-02T03:41:01;3.67;;;1.20;;
39264;SDS011;42646;51.910;7.724;2022-09-02T03:43:29;2.88;;;1.20;;
39264;SDS011;42646;51.910;7.724;2022-09-02T03:45:57;2.30;;;1.13;;
39264;SDS011;42646;51.910;7.724;2022-09-02T03:48:25;2.22;;;1.08;;
39264;SDS011;42646;51.910;7.724;2022-09-02T03:50:55;1.95;;;1.08;;
39264;SDS011;42646;51.910;7.724;2022-09-02T03:53:24;3.05;;;1.13;;
39264;SDS011;42646;51.910;7.724;2022-09-02T03:55:57;3.08;;;1.20;;
39264;SDS011;42646;51.910;7.724;2022-09-02T03:58:26;2.33;;;1.02;;
39264;SDS011;42646;51.910;7.724;2022-09-02T04:00:56;2.40;;;1.20;;
39264;SDS011;42646;51.910;7.724;2022-09-02T04:03:24;2.03;;;1.10;;
39264;SDS011;42646;51.910;7.724;2022-09-02T04:05:52;3.22;;;1.10;;
39264;SDS011;42646;51.910;7.724;2022-09-02T04:08:23;3.85;;;1.05;;
39264;SDS011;42646;51.910;7.724;2022-09-02T04:10:54;2.85;;;1.23;;
39264;SDS011;42646;51.910;7.724;2022-09-02T04:13:23;2.67;;;1.20;;
39264;SDS011;42646;51.910;7.724;2022-09-02T04:15:51;1.92;;;1.10;;
39264;SDS011;42646;51.910;7.724;2022-09-02T04:18:22;2.50;;;1.42;;
39264;SDS011;42646;51.910;7.724;2022-09-02T04:20:57;2.75;;;1.10;;
39264;SDS011;42646;51.910;7.724;2022-09-02T04:23:26;2.95;;;1.25;;
39264;SDS011;42646;51.910;7.724;2022-09-02T04:25:54;1.88;;;1.10;;
39264;SDS011;42646;51.910;7.724;2022-09-02T04:28:24;3.60;;;1.40;;
39264;SDS011;42646;51.910;7.724;2022-09-02T04:30:52;2.17;;;1.20;;
39264;SDS011;42646;51.910;7.724;2022-09-02T04:33:21;2.25;;;1.02;;
39264;SDS011;42646;51.910;7.724;2022-09-02T04:35:49;2.50;;;1.13;;
39264;SDS011;42646;51.910;7.724;2022-09-02T04:38:18;2.08;;;1.10;;
39264;SDS011;42646;51.910;7.724;2022-09-02T04:40:47;1.92;;;1.15;;
39264;SDS011;42646;51.910;7.724;2022-09-02T04:43:17;2.33;;;1.20;;
39264;SDS011;42646;51.910;7.724;2022-09-02T04:45:47;2.05;;;1.23;;
39264;SDS011;42646;51.910;7.724;2022-09-02T04:48:17;1.90;;;1.10;;
39264;SDS011;42646;51.910;7.724;2022-09-02T04:50:46;1.95;;;1.10;;
39264;SDS011;42646;51.910;7.724;2022-09-02T04:53:16;2.30;;;1.17;;
39264;SDS011;42646;51.910;7.724;2022-09-02T04:55:43;2.33;;;1.20;;
39264;SDS011;42646;51.910;7.724;2022-09-02T04:58:13;2.47;;;1.20;;
39264;SDS011;42646;51.910;7.724;2022-09-02T05:00:44;1.95;;;1.10;;
39264;SDS011;42646;51.910;7.724;2022-09-02T05:03:15;2.78;;;1.13;;
39264;SDS011;42646;51.910;7.724;2022-09-02T05:05:46;2.25;;;1.20;;
39264;SDS011;42646;51.910;7.724;2022-09-02T05:08:14;2.58;;;1.30;;
39264;SDS011;42646;51.910;7.724;2022-09-02T05:10:48;3.22;;;1.40;;
39264;SDS011;42646;51.910;7.724;2022-09-02T05:13:16;3.25;;;1.65;;
39264;SDS011;42646;51.910;7.724;2022-09-02T05:15:44;4.43;;;1.35;;
39264;SDS011;42646;51.910;7.724;2022-09-02T05:18:13;3.45;;;1.35;;
39264;SDS011;42646;51.910;7.724;2022-09-02T05:20:43;3.20;;;1.30;;
39264;SDS011;42646;51.910;7.724;2022-09-02T05:23:11;2.10;;;1.33;;
39264;SDS011;42646;51.910;7.724;2022-09-02T05:25:42;2.53;;;1.40;;
39264;SDS011;42646;51.910;7.724;2022-09-02T05:28:58;2.63;;;1.20;;
39264;SDS011;42646;51.910;7.724;2022-09-02T05:32:15;3.67;;;1.42;;
39264;SDS011;42646;51.910;7.724;2022-09-02T05:34:46;2.45;;;1.25;;
39264;SDS011;42646;51.910;7.724;2022-09-02T05:37:16;3.38;;;1.30;;
39264;SDS011;42646;51.910;7.724;2022-09-02T05:39:45;3.10;;;1.40;;
39264;SDS011;42646;51.910;7.724;2022-09-02T05:42:14;4.22;;;1.45;;
39264;SDS011;42646;51.910;7.724;2022-09-02T05:44:46;2.60;;;1.50;;
39264;SDS011;42646;51.910;7.724;2022-09-02T05:47:18;4.70;;;1.50;;
39264;SDS011;42646;51.910;7.724;2022-09-02T05:49:46;3.65;;;1.30;;
39264;SDS011;42646;51.910;7.724;2022-09-02T05:52:15;3.67;;;1.45;;
39264;SDS011;42646;51.910;7.724;2022-09-02T05:54:47;3.65;;;1.40;;
39264;SDS011;42646;51.910;7.724;2022-09-02T05:57:18;2.95;;;1.30;;
39264;SDS011;42646;51.910;7.724;2022-09-02T05:59:59;2.30;;;1.20;;
39264;SDS011;42646;51.910;7.724;2022-09-02T06:02:39;2.53;;;1.40;;
39264;SDS011;42646;51.910;7.724;2022-09-02T06:05:12;3.15;;;1.30;;
39264;SDS011;42646;51.910;7.724;2022-09-02T06:07:47;2.80;;;1.30;;
39264;SDS011;42646;51.910;7.724;2022-09-02T06:10:18;3.38;;;1.30;;
39264;SDS011;42646;51.910;7.724;2022-09-02T06:12:47;4.03;;;1.60;;
39264;SDS011;42646;51.910;7.724;2022-09-02T06:15:18;2.67;;;1.38;;
39264;SDS011;42646;51.910;7.724;2022-09-02T06:17:47;2.78;;;1.33;;
39264;SDS011;42646;51.910;7.724;2022-09-02T06:20:15;2.65;;;1.33;;
39264;SDS011;42646;51.910;7.724;2022-09-02T06:22:44;2.92;;;1.63;;
39264;SDS011;42646;51.910;7.724;2022-09-02T06:25:14;3.03;;;1.20;;
39264;SDS011;42646;51.910;7.724;2022-09-02T06:27:46;3.25;;;1.30;;
39264;SDS011;42646;51.910;7.724;2022-09-02T06:30:14;3.63;;;1.30;;
39264;SDS011;42646;51.910;7.724;2022-09-02T06:32:42;2.63;;;1.40;;
39264;SDS011;42646;51.910;7.724;2022-09-02T06:35:16;3.00;;;1.40;;
39264;SDS011;42646;51.910;7.724;2022-09-02T06:37:45;2.78;;;1.20;;
39264;SDS011;42646;51.910;7.724;2022-09-02T06:40:12;2.05;;;1.17;;
39264;SDS011;42646;51.910;7.724;2022-09-02T06:42:46;2.90;;;1.38;;
39264;SDS011;42646;51.910;7.724;2022-09-02T06:45:38;2.35;;;1.27;;
39264;SDS011;42646;51.910;7.724;2022-09-02T06:48:07;3.25;;;1.60;;
39264;SDS011;42646;51.910;7.724;2022-09-02T06:50:38;2.40;;;1.20;;
39264;SDS011;42646;51.910;7.724;2022-09-02T06:53:07;3.13;;;1.30;;
39264;SDS011;42646;51.910;7.724;2022-09-02T06:55:39;2.15;;;1.20;;
39264;SDS011;42646;51.910;7.724;2022-09-02T07:00:38;2.40;;;1.27;;
39264;SDS011;42646;51.910;7.724;2022-09-02T07:03:07;3.58;;;1.10;;
39264;SDS011;42646;51.910;7.724;2022-09-02T07:05:57;4.00;;;1.50;;
39264;SDS011;42646;51.910;7.724;2022-09-02T07:08:28;2.40;;;1.20;;
39264;SDS011;42646;51.910;7.724;2022-09-02T07:10:57;3.35;;;1.20;;
39264;SDS011;42646;51.910;7.724;2022-09-02T07:13:26;2.70;;;1.20;;
39264;SDS011;42646;51.910;7.724;2022-09-02T07:15:54;2.92;;;1.35;;
39264;SDS011;42646;51.910;7.724;2022-09-02T07:18:22;4.07;;;1.63;;
39264;SDS011;42646;51.910;7.724;2022-09-02T07:20:51;4.00;;;1.30;;
39264;SDS011;42646;51.910;7.724;2022-09-02T07:23:20;2.55;;;1.30;;
39264;SDS011;42646;51.910;7.724;2022-09-02T07:25:48;3.97;;;1.30;;
39264;SDS011;42646;51.910;7.724;2022-09-02T07:28:18;2.40;;;1.48;;
39264;SDS011;42646;51.910;7.724;2022-09-02T07:30:46;4.03;;;1.40;;
39264;SDS011;42646;51.910;7.724;2022-09-02T07:33:25;2.50;;;1.35;;
39264;SDS011;42646;51.910;7.724;2022-09-02T07:35:54;3.97;;;1.20;;
39264;SDS011;42646;51.910;7.724;2022-09-02T07:38:23;3.33;;;1.10;;
39264;SDS011;42646;51.910;7.724;2022-09-02T07:40:51;2.20;;;1.13;;
39264;SDS011;42646;51.910;7.724;2022-09-02T07:43:24;2.93;;;1.40;;
39264;SDS011;42646;51.910;7.724;2022-09-02T07:45:52;3.38;;;1.20;;
39264;SDS011;42646;51.910;7.724;2022-09-02T07:48:21;3.00;;;1.30;;
39264;SDS011;42646;51.910;7.724;2022-09-02T07:50:50;3.70;;;1.55;;
39264;SDS011;42646;51.910;7.724;2022-09-02T07:53:18;4.20;;;1.50;;
39264;SDS011;42646;51.910;7.724;2022-09-02T07:55:47;2.72;;;1.20;;
39264;SDS011;42646;51.910;7.724;2022-09-02T07:58:15;2.50;;;1.30;;
39264;SDS011;42646;51.910;7.724;2022-09-02T08:00:47;2.78;;;1.40;;
39264;SDS011;42646;51.910;7.724;2022-09-02T08:03:16;3.10;;;1.33;;
39264;SDS011;42646;51.910;7.724;2022-09-02T08:05:50;3.17;;;1.20;;
39264;SDS011;42646;51.910;7.724;2022-09-02T08:08:18;2.25;;;1.40;;
39264;SDS011;42646;51.910;7.724;2022-09-02T08:10:47;2.33;;;1.20;;
39264;SDS011;42646;51.910;7.724;2022-09-02T08:13:16;3.20;;;1.48;;
39264;SDS011;42646;51.910;7.724;2022-09-02T08:15:44;2.70;;;1.33;;
39264;SDS011;42646;51.910;7.724;2022-09-02T08:18:16;2.90;;;1.40;;
39264;SDS011;42646;51.910;7.724;2022-09-02T08:20:48;3.00;;;1.25;;
39264;SDS011;42646;51.910;7.724;2022-09-02T08:23:15;4.20;;;1.40;;
39264;SDS011;42646;51.910;7.724;2022-09-02T08:26:01;2.25;;;1.25;;
39264;SDS011;42646;51.910;7.724;2022-09-02T08:28:30;2.92;;;1.50;;
39264;SDS011;42646;51.910;7.724;2022-09-02T08:31:02;2.85;;;1.38;;
39264;SDS011;42646;51.910;7.724;2022-09-02T08:33:31;2.85;;;1.30;;
39264;SDS011;42646;51.910;7.724;2022-09-02T08:36:00;3.47;;;1.33;;
39264;SDS011;42646;51.910;7.724;2022-09-02T08:38:29;2.65;;;1.33;;
39264;SDS011;42646;51.910;7.724;2022-09-02T08:40:57;4.63;;;1.20;;
39264;SDS011;42646;51.910;7.724;2022-09-02T08:43:27;2.47;;;1.33;;
39264;SDS011;42646;51.910;7.724;2022-09-02T08:46:07;2.25;;;1.30;;
39264;SDS011;42646;51.910;7.724;2022-09-02T08:48:41;4.05;;;1.40;;
39264;SDS011;42646;51.910;7.724;2022-09-02T08:51:17;2.63;;;1.30;;
39264;SDS011;42646;51.910;7.724;2022-09-02T08:53:49;3.17;;;1.38;;
39264;SDS011;42646;51.910;7.724;2022-09-02T08:56:20;4.22;;;1.60;;
39264;SDS011;42646;51.910;7.724;2022-09-02T08:58:48;3.55;;;1.50;;
39264;SDS011;42646;51.910;7.724;2022-09-02T09:01:26;2.92;;;1.20;;
39264;SDS011;42646;51.910;7.724;2022-09-02T09:04:05;3.55;;;1.40;;
39264;SDS011;42646;51.910;7.724;2022-09-02T09:06:46;4.28;;;1.42;;
39264;SDS011;42646;51.910;7.724;2022-09-02T09:09:28;3.13;;;1.40;;
39264;SDS011;42646;51.910;7.724;2022-09-02T09:12:04;2.70;;;1.35;;
39264;SDS011;42646;51.910;7.724;2022-09-02T09:14:43;2.90;;;1.20;;
39264;SDS011;42646;51.910;7.724;2022-09-02T09:17:21;3.45;;;1.38;;
39264;SDS011;42646;51.910;7.724;2022-09-02T09:19:56;3.90;;;1.45;;
39264;SDS011;42646;51.910;7.724;2022-09-02T09:22:28;3.70;;;1.40;;
39264;SDS011;42646;51.910;7.724;2022-09-02T09:24:59;2.80;;;1.40;;
39264;SDS011;42646;51.910;7.724;2022-09-02T09:27:27;2.25;;;1.20;;
39264;SDS011;42646;51.910;7.724;2022-09-02T09:29:54;2.95;;;1.40;;
39264;SDS011;42646;51.910;7.724;2022-09-02T09:32:24;3.97;;;1.50;;
39264;SDS011;42646;51.910;7.724;2022-09-02T09:35:00;3.88;;;1.50;;
39264;SDS011;42646;51.910;7.724;2022-09-02T09:37:33;2.53;;;1.40;;
39264;SDS011;42646;51.910;7.724;2022-09-02T09:40:19;5.28;;;1.60;;
39264;SDS011;42646;51.910;7.724;2022-09-02T09:42:58;2.92;;;1.30;;
39264;SDS011;42646;51.910;7.724;2022-09-02T09:45:41;2.50;;;1.30;;
39264;SDS011;42646;51.910;7.724;2022-09-02T09:48:15;4.30;;;1.60;;
39264;SDS011;42646;51.910;7.724;2022-09-02T09:50:49;3.63;;;1.65;;
39264;SDS011;42646;51.910;7.724;2022-09-02T09:53:37;2.30;;;1.20;;
39264;SDS011;42646;51.910;7.724;2022-09-02T09:56:07;3.53;;;1.70;;
39264;SDS011;42646;51.910;7.724;2022-09-02T09:59:06;4.88;;;1.40;;
39264;SDS011;42646;51.910;7.724;2022-09-02T10:01:55;2.92;;;1.35;;
39264;SDS011;42646;51.910;7.724;2022-09-02T10:04:27;4.50;;;1.60;;
39264;SDS011;42646;51.910;7.724;2022-09-02T10:07:11;4.28;;;1.35;;
39264;SDS011;42646;51.910;7.724;2022-09-02T10:09:39;2.55;;;1.30;;
39264;SDS011;42646;51.910;7.724;2022-09-02T10:12:10;4.65;;;2.05;;
39264;SDS011;42646;51.910;7.724;2022-09-02T10:14:40;3.60;;;1.75;;
39264;SDS011;42646;51.910;7.724;2022-09-02T10:17:22;5.78;;;1.50;;
39264;SDS011;42646;51.910;7.724;2022-09-02T10:20:01;2.33;;;1.30;;
39264;SDS011;42646;51.910;7.724;2022-09-02T10:22:37;5.30;;;1.63;;
39264;SDS011;42646;51.910;7.724;2022-09-02T10:25:35;4.20;;;1.38;;
39264;SDS011;42646;51.910;7.724;2022-09-02T10:28:12;3.65;;;1.73;;
39264;SDS011;42646;51.910;7.724;2022-09-02T10:30:54;3.05;;;1.50;;
39264;SDS011;42646;51.910;7.724;2022-09-02T10:33:33;4.43;;;1.38;;
39264;SDS011;42646;51.910;7.724;2022-09-02T10:36:08;3.58;;;1.45;;
39264;SDS011;42646;51.910;7.724;2022-09-02T10:38:47;2.92;;;1.60;;
39264;SDS011;42646;51.910;7.724;2022-09-02T10:41:30;2.55;;;1.33;;
39264;SDS011;42646;51.910;7.724;2022-09-02T10:44:29;3.58;;;1.70;;
39264;SDS011;42646;51.910;7.724;2022-09-02T10:47:02;2.75;;;1.40;;
39264;SDS011;42646;51.910;7.724;2022-09-02T10:49:44;3.15;;;1.60;;
39264;SDS011;42646;51.910;7.724;2022-09-02T10:52:30;2.80;;;1.50;;
39264;SDS011;42646;51.910;7.724;2022-09-02T10:55:12;5.82;;;1.60;;
39264;SDS011;42646;51.910;7.724;2022-09-02T10:57:51;3.20;;;1.50;;
39264;SDS011;42646;51.910;7.724;2022-09-02T11:00:27;3.20;;;1.60;;
39264;SDS011;42646;51.910;7.724;2022-09-02T11:03:00;3.38;;;1.70;;
39264;SDS011;42646;51.910;7.724;2022-09-02T11:05:37;2.95;;;1.50;;
39264;SDS011;42646;51.910;7.724;2022-09-02T11:08:10;4.22;;;1.58;;
39264;SDS011;42646;51.910;7.724;2022-09-02T11:13:15;3.25;;;1.50;;
39264;SDS011;42646;51.910;7.724;2022-09-02T11:15:50;5.22;;;1.70;;
39264;SDS011;42646;51.910;7.724;2022-09-02T11:18:23;2.92;;;1.70;;
39264;SDS011;42646;51.910;7.724;2022-09-02T11:21:02;2.40;;;1.40;;
39264;SDS011;42646;51.910;7.724;2022-09-02T11:23:36;2.63;;;1.55;;
39264;SDS011;42646;51.910;7.724;2022-09-02T11:26:10;3.40;;;1.60;;
39264;SDS011;42646;51.910;7.724;2022-09-02T11:28:45;3.33;;;1.70;;
39264;SDS011;42646;51.910;7.724;2022-09-02T11:31:21;2.47;;;1.60;;
39264;SDS011;42646;51.910;7.724;2022-09-02T11:33:54;2.42;;;1.50;;
39264;SDS011;42646;51.910;7.724;2022-09-02T11:36:35;2.75;;;1.50;;
39264;SDS011;42646;51.910;7.724;2022-09-02T11:39:04;2.92;;;1.60;;
39264;SDS011;42646;51.910;7.724;2022-09-02T11:41:43;3.90;;;1.58;;
39264;SDS011;42646;51.910;7.724;2022-09-02T11:44:32;2.03;;;1.30;;
39264;SDS011;42646;51.910;7.724;2022-09-02T11:50:27;3.15;;;1.55;;
39264;SDS011;42646;51.910;7.724;2022-09-02T11:53:11;4.15;;;1.40;;
39264;SDS011;42646;51.910;7.724;2022-09-02T11:55:46;4.07;;;1.60;;
39264;SDS011;42646;51.910;7.724;2022-09-02T11:58:30;2.30;;;1.33;;
39264;SDS011;42646;51.910;7.724;2022-09-02T12:01:04;4.60;;;1.73;;
39264;SDS011;42646;51.910;7.724;2022-09-02T12:03:52;3.05;;;1.50;;
39264;SDS011;42646;51.910;7.724;2022-09-02T12:09:50;3.75;;;1.60;;
39264;SDS011;42646;51.910;7.724;2022-09-02T12:15:25;2.65;;;1.60;;
39264;SDS011;42646;51.910;7.724;2022-09-02T12:21:04;4.20;;;1.58;;
39264;SDS011;42646;51.910;7.724;2022-09-02T12:29:33;2.92;;;1.40;;
39264;SDS011;42646;51.910;7.724;2022-09-02T12:32:05;3.25;;;1.40;;
39264;SDS011;42646;51.910;7.724;2022-09-02T12:34:55;3.20;;;1.60;;
39264;SDS011;42646;51.910;7.724;2022-09-02T12:37:48;3.45;;;1.60;;
39264;SDS011;42646;51.910;7.724;2022-09-02T12:40:24;2.88;;;1.60;;
39264;SDS011;42646;51.910;7.724;2022-09-02T12:42:58;3.13;;;1.60;;
39264;SDS011;42646;51.910;7.724;2022-09-02T12:45:29;3.15;;;1.52;;
39264;SDS011;42646;51.910;7.724;2022-09-02T12:48:00;2.87;;;1.60;;
39264;SDS011;42646;51.910;7.724;2022-09-02T12:50:52;3.88;;;1.63;;
39264;SDS011;42646;51.910;7.724;2022-09-02T12:53:26;3.03;;;1.60;;
39264;SDS011;42646;51.910;7.724;2022-09-02T12:56:01;3.00;;;1.50;;
39264;SDS011;42646;51.910;7.724;2022-09-02T12:58:33;2.58;;;1.42;;
39264;SDS011;42646;51.910;7.724;2022-09-02T13:01:08;3.05;;;1.40;;
39264;SDS011;42646;51.910;7.724;2022-09-02T13:03:51;3.20;;;1.50;;
39264;SDS011;42646;51.910;7.724;2022-09-02T13:06:42;4.68;;;1.60;;
39264;SDS011;42646;51.910;7.724;2022-09-02T13:12:57;3.72;;;1.55;;
39264;SDS011;42646;51.910;7.724;2022-09-02T13:15:50;2.55;;;1.45;;
39264;SDS011;42646;51.910;7.724;2022-09-02T13:18:43;3.80;;;1.55;;
39264;SDS011;42646;51.910;7.724;2022-09-02T13:21:35;2.78;;;1.63;;
39264;SDS011;42646;51.910;7.724;2022-09-02T13:30:27;2.60;;;1.50;;
39264;SDS011;42646;51.910;7.724;2022-09-02T13:33:08;2.90;;;1.50;;
39264;SDS011;42646;51.910;7.724;2022-09-02T13:35:38;6.85;;;1.60;;
39264;SDS011;42646;51.910;7.724;2022-09-02T13:38:09;6.20;;;1.50;;
39264;SDS011;42646;51.910;7.724;2022-09-02T13:40:38;2.60;;;1.60;;
39264;SDS011;42646;51.910;7.724;2022-09-02T13:43:15;5.60;;;1.60;;
39264;SDS011;42646;51.910;7.724;2022-09-02T13:45:44;3.33;;;1.50;;
39264;SDS011;42646;51.910;7.724;2022-09-02T13:48:14;4.40;;;1.60;;
39264;SDS011;42646;51.910;7.724;2022-09-02T13:50:44;3.45;;;1.45;;
39264;SDS011;42646;51.910;7.724;2022-09-02T13:53:22;4.25;;;1.40;;
39264;SDS011;42646;51.910;7.724;2022-09-02T13:56:13;3.72;;;1.65;;
39264;SDS011;42646;51.910;7.724;2022-09-02T13:58:43;2.70;;;1.30;;
39264;SDS011;42646;51.910;7.724;2022-09-02T14:01:18;3.97;;;1.50;;
39264;SDS011;42646;51.910;7.724;2022-09-02T14:03:49;2.72;;;1.65;;
39264;SDS011;42646;51.910;7.724;2022-09-02T14:06:19;2.22;;;1.40;;
39264;SDS011;42646;51.910;7.724;2022-09-02T14:08:52;2.00;;;1.20;;
39264;SDS011;42646;51.910;7.724;2022-09-02T14:11:24;2.17;;;1.33;;
39264;SDS011;42646;51.910;7.724;2022-09-02T14:13:52;3.22;;;1.50;;
39264;SDS011;42646;51.910;7.724;2022-09-02T14:16:26;3.38;;;1.60;;
39264;SDS011;42646;51.910;7.724;2022-09-02T14:19:02;4.10;;;1.40;;
39264;SDS011;42646;51.910;7.724;2022-09-02T14:21:31;2.53;;;1.38;;
39264;SDS011;42646;51.910;7.724;2022-09-02T14:24:02;2.75;;;1.42;;
39264;SDS011;42646;51.910;7.724;2022-09-02T14:26:32;3.92;;;1.55;;
39264;SDS011;42646;51.910;7.724;2022-09-02T14:29:03;3.83;;;1.60;;
39264;SDS011;42646;51.910;7.724;2022-09-02T14:31:32;2.80;;;1.55;;
39264;SDS011;42646;51.910;7.724;2022-09-02T14:34:03;5.28;;;1.50;;
39264;SDS011;42646;51.910;7.724;2022-09-02T14:36:32;4.65;;;1.70;;
39264;SDS011;42646;51.910;7.724;2022-09-02T14:39:10;3.70;;;1.60;;
39264;SDS011;42646;51.910;7.724;2022-09-02T14:41:44;4.00;;;1.70;;
39264;SDS011;42646;51.910;7.724;2022-09-02T14:44:16;6.40;;;1.52;;
39264;SDS011;42646;51.910;7.724;2022-09-02T14:46:48;5.82;;;1.80;;
39264;SDS011;42646;51.910;7.724;2022-09-02T14:49:20;4.53;;;1.80;;
39264;SDS011;42646;51.910;7.724;2022-09-02T14:51:50;3.00;;;1.57;;
39264;SDS011;42646;51.910;7.724;2022-09-02T14:54:35;2.97;;;1.48;;
39264;SDS011;42646;51.910;7.724;2022-09-02T14:57:05;3.92;;;1.77;;
39264;SDS011;42646;51.910;7.724;2022-09-02T14:59:46;5.05;;;1.80;;
39264;SDS011;42646;51.910;7.724;2022-09-02T15:02:27;3.47;;;1.65;;
39264;SDS011;42646;51.910;7.724;2022-09-02T15:04:57;2.80;;;1.52;;
39264;SDS011;42646;51.910;7.724;2022-09-02T15:07:26;4.25;;;1.50;;
39264;SDS011;42646;51.910;7.724;2022-09-02T15:09:56;4.35;;;1.63;;
39264;SDS011;42646;51.910;7.724;2022-09-02T15:12:24;3.28;;;1.60;;
39264;SDS011;42646;51.910;7.724;2022-09-02T15:14:56;4.70;;;1.50;;
39264;SDS011;42646;51.910;7.724;2022-09-02T15:17:24;3.85;;;1.50;;
39264;SDS011;42646;51.910;7.724;2022-09-02T15:19:53;5.20;;;1.48;;
39264;SDS011;42646;51.910;7.724;2022-09-02T15:22:22;2.90;;;1.40;;
39264;SDS011;42646;51.910;7.724;2022-09-02T15:24:50;4.13;;;1.30;;
39264;SDS011;42646;51.910;7.724;2022-09-02T15:27:19;2.78;;;1.40;;
39264;SDS011;42646;51.910;7.724;2022-09-02T15:29:47;3.55;;;1.45;;
39264;SDS011;42646;51.910;7.724;2022-09-02T15:32:15;3.25;;;1.45;;
39264;SDS011;42646;51.910;7.724;2022-09-02T15:34:43;3.28;;;1.52;;
39264;SDS011;42646;51.910;7.724;2022-09-02T15:37:11;4.07;;;1.60;;
39264;SDS011;42646;51.910;7.724;2022-09-02T15:39:39;3.83;;;1.50;;
39264;SDS011;42646;51.910;7.724;2022-09-02T15:42:06;4.05;;;1.48;;
39264;SDS011;42646;51.910;7.724;2022-09-02T15:44:35;4.15;;;1.83;;
39264;SDS011;42646;51.910;7.724;2022-09-02T15:47:03;3.90;;;1.60;;
39264;SDS011;42646;51.910;7.724;2022-09-02T15:49:31;2.60;;;1.30;;
39264;SDS011;42646;51.910;7.724;2022-09-02T15:51:58;2.40;;;1.30;;
39264;SDS011;42646;51.910;7.724;2022-09-02T15:54:27;3.17;;;1.38;;
39264;SDS011;42646;51.910;7.724;2022-09-02T15:56:57;2.60;;;1.50;;